sensor_id;sensor_type;location;lat;lon;timestamp;pressure;altitude;pressure_sealevel;temperature;humidity
21153;BME280;10734;44.792;20.482;2023-05-01T06:08:15;100149.16;;;13.79;nan
21153;BME280;10734;44.792;20.482;2023-05-01T06:10:42;100156.25;;;13.67;nan
21153;BME280;10734;44.792;20.482;2023-05-01T06:13:09;100150.25;;;14.02;nan
21153;BME280;10734;44.792;20.482;2023-05-01T06:15:39;100148.03;;;14.47;nan
21153;BME280;10734;44.792;20.482;2023-05-01T06:18:07;100150.31;;;14.79;nan
21153;BME280;10734;44.792;20.482;2023-05-01T06:20:34;100151.59;;;14.99;nan
21153;BME280;10734;44.792;20.482;2023-05-01T06:23:00;100153.44;;;14.98;nan
21153;BME280;10734;44.792;20.482;2023-05-01T06:25:27;100155.38;;;14.96;nan
21153;BME280;10734;44.792;20.482;2023-05-01T06:27:54;100154.63;;;15.31;nan
21153;BME280;10734;44.792;20.482;2023-05-01T06:30:21;100157.50;;;15.41;nan
21153;BME280;10734;44.792;20.482;2023-05-01T06:32:48;100162.44;;;14.99;nan
21153;BME280;10734;44.792;20.482;2023-05-01T06:35:15;100165.00;;;15.00;nan
21153;BME280;10734;44.792;20.482;2023-05-01T06:37:42;100155.41;;;14.71;nan
21153;BME280;10734;44.792;20.482;2023-05-01T06:40:12;100162.97;;;15.28;nan
21153;BME280;10734;44.792;20.482;2023-05-01T06:42:39;100162.31;;;15.85;nan
21153;BME280;10734;44.792;20.482;2023-05-01T06:45:06;100166.63;;;16.12;nan
21153;BME280;10734;44.792;20.482;2023-05-01T06:47:33;100166.50;;;16.13;nan
21153;BME280;10734;44.792;20.482;2023-05-01T06:50:01;100169.47;;;16.10;nan
21153;BME280;10734;44.792;20.482;2023-05-01T06:52:30;100181.78;;;16.03;nan
21153;BME280;10734;44.792;20.482;2023-05-01T06:54:57;100173.56;;;16.27;nan
21153;BME280;10734;44.792;20.482;2023-05-01T06:57:23;100173.75;;;16.59;nan
21153;BME280;10734;44.792;20.482;2023-05-01T06:59:51;100175.66;;;16.81;nan
21153;BME280;10734;44.792;20.482;2023-05-01T07:02:18;100178.88;;;17.09;nan
21153;BME280;10734;44.792;20.482;2023-05-01T07:04:44;100179.69;;;17.32;nan
21153;BME280;10734;44.792;20.482;2023-05-01T07:07:11;100172.00;;;17.48;nan
21153;BME280;10734;44.792;20.482;2023-05-01T07:09:39;100175.41;;;17.84;nan
21153;BME280;10734;44.792;20.482;2023-05-01T07:12:07;100176.97;;;18.18;nan
21153;BME280;10734;44.792;20.482;2023-05-01T07:14:34;100179.50;;;18.52;nan
21153;BME280;10734;44.792;20.482;2023-05-01T07:17:02;100186.69;;;18.00;nan
21153;BME280;10734;44.792;20.482;2023-05-01T07:19:29;100193.16;;;17.44;nan
21153;BME280;10734;44.792;20.482;2023-05-01T07:21:55;100187.13;;;17.18;nan
21153;BME280;10734;44.792;20.482;2023-05-01T07:24:22;100190.84;;;17.17;nan
21153;BME280;10734;44.792;20.482;2023-05-01T07:26:49;100200.72;;;16.62;nan
21153;BME280;10734;44.792;20.482;2023-05-01T07:29:17;100198.00;;;16.62;nan
21153;BME280;10734;44.792;20.482;2023-05-01T07:31:45;100201.50;;;16.75;nan
21153;BME280;10734;44.792;20.482;2023-05-01T07:34:11;100194.16;;;17.32;nan
21153;BME280;10734;44.792;20.482;2023-05-01T07:36:39;100205.78;;;16.67;nan
21153;BME280;10734;44.792;20.482;2023-05-01T07:39:06;100198.91;;;17.08;nan
21153;BME280;10734;44.792;20.482;2023-05-01T07:41:33;100193.66;;;16.60;nan
21153;BME280;10734;44.792;20.482;2023-05-01T07:44:00;100200.97;;;16.70;nan
21153;BME280;10734;44.792;20.482;2023-05-01T07:46:27;100199.78;;;16.86;nan
21153;BME280;10734;44.792;20.482;2023-05-01T07:48:54;100191.88;;;17.05;nan
21153;BME280;10734;44.792;20.482;2023-05-01T07:51:20;100200.75;;;16.85;nan
21153;BME280;10734;44.792;20.482;2023-05-01T07:53:47;100192.91;;;17.47;nan
21153;BME280;10734;44.792;20.482;2023-05-01T07:56:14;100193.47;;;17.19;nan
21153;BME280;10734;44.792;20.482;2023-05-01T07:58:41;100197.88;;;17.42;nan
21153;BME280;10734;44.792;20.482;2023-05-01T08:01:09;100189.28;;;17.81;nan
21153;BME280;10734;44.792;20.482;2023-05-01T08:03:36;100191.38;;;18.09;nan
21153;BME280;10734;44.792;20.482;2023-05-01T08:06:04;100197.84;;;18.29;nan
21153;BME280;10734;44.792;20.482;2023-05-01T08:08:31;100192.03;;;18.64;nan
21153;BME280;10734;44.792;20.482;2023-05-01T08:10:57;100197.78;;;18.82;nan
21153;BME280;10734;44.792;20.482;2023-05-01T08:13:24;100196.25;;;18.68;nan
21153;BME280;10734;44.792;20.482;2023-05-01T08:15:51;100193.72;;;18.56;nan
21153;BME280;10734;44.792;20.482;2023-05-01T08:18:18;100192.72;;;18.36;nan
21153;BME280;10734;44.792;20.482;2023-05-01T08:20:47;100193.78;;;18.65;nan
21153;BME280;10734;44.792;20.482;2023-05-01T08:23:15;100198.31;;;18.55;nan
21153;BME280;10734;44.792;20.482;2023-05-01T08:25:42;100203.13;;;19.24;nan
21153;BME280;10734;44.792;20.482;2023-05-01T08:28:13;100204.22;;;19.12;nan
21153;BME280;10734;44.792;20.482;2023-05-01T08:30:40;100205.94;;;19.03;nan
21153;BME280;10734;44.792;20.482;2023-05-01T08:33:07;100207.63;;;18.74;nan
21153;BME280;10734;44.792;20.482;2023-05-01T08:35:33;100213.91;;;18.95;nan
21153;BME280;10734;44.792;20.482;2023-05-01T08:38:00;100199.97;;;19.19;nan
21153;BME280;10734;44.792;20.482;2023-05-01T08:40:30;100206.91;;;19.33;nan
21153;BME280;10734;44.792;20.482;2023-05-01T08:43:01;100207.75;;;19.74;nan
21153;BME280;10734;44.792;20.482;2023-05-01T08:45:31;100202.56;;;19.71;nan
21153;BME280;10734;44.792;20.482;2023-05-01T08:48:04;100211.63;;;19.71;nan
21153;BME280;10734;44.792;20.482;2023-05-01T08:50:35;100207.03;;;20.11;nan
21153;BME280;10734;44.792;20.482;2023-05-01T08:53:05;100210.91;;;20.76;nan
21153;BME280;10734;44.792;20.482;2023-05-01T08:55:33;100208.44;;;20.83;nan
21153;BME280;10734;44.792;20.482;2023-05-01T08:58:01;100203.88;;;19.86;nan
21153;BME280;10734;44.792;20.482;2023-05-01T09:00:30;100194.66;;;19.27;nan
21153;BME280;10734;44.792;20.482;2023-05-01T09:03:00;100194.81;;;19.76;nan
21153;BME280;10734;44.792;20.482;2023-05-01T09:05:30;100201.56;;;20.49;nan
21153;BME280;10734;44.792;20.482;2023-05-01T09:07:58;100190.47;;;21.08;nan
21153;BME280;10734;44.792;20.482;2023-05-01T09:10:25;100189.59;;;21.44;nan
21153;BME280;10734;44.792;20.482;2023-05-01T09:13:00;100192.78;;;21.67;nan
21153;BME280;10734;44.792;20.482;2023-05-01T09:15:27;100187.56;;;21.92;nan
21153;BME280;10734;44.792;20.482;2023-05-01T09:17:58;100188.09;;;22.13;nan
21153;BME280;10734;44.792;20.482;2023-05-01T09:20:28;100192.81;;;22.21;nan
21153;BME280;10734;44.792;20.482;2023-05-01T09:22:56;100193.63;;;22.57;nan
21153;BME280;10734;44.792;20.482;2023-05-01T09:25:22;100186.16;;;22.67;nan
21153;BME280;10734;44.792;20.482;2023-05-01T09:27:49;100191.09;;;22.02;nan
21153;BME280;10734;44.792;20.482;2023-05-01T09:30:30;100193.81;;;22.56;nan
21153;BME280;10734;44.792;20.482;2023-05-01T09:33:13;100195.53;;;22.83;nan
21153;BME280;10734;44.792;20.482;2023-05-01T09:35:52;100189.28;;;23.33;nan
21153;BME280;10734;44.792;20.482;2023-05-01T09:38:21;100186.88;;;22.96;nan
21153;BME280;10734;44.792;20.482;2023-05-01T09:40:48;100186.19;;;23.28;nan
21153;BME280;10734;44.792;20.482;2023-05-01T09:43:26;100185.69;;;23.32;nan
21153;BME280;10734;44.792;20.482;2023-05-01T09:46:07;100177.25;;;23.76;nan
21153;BME280;10734;44.792;20.482;2023-05-01T09:48:37;100185.88;;;23.90;nan
21153;BME280;10734;44.792;20.482;2023-05-01T09:53:50;100170.56;;;23.79;nan
21153;BME280;10734;44.792;20.482;2023-05-01T09:56:18;100172.81;;;23.75;nan
21153;BME280;10734;44.792;20.482;2023-05-01T09:58:50;100168.91;;;24.19;nan
21153;BME280;10734;44.792;20.482;2023-05-01T10:01:18;100169.88;;;24.91;nan
21153;BME280;10734;44.792;20.482;2023-05-01T10:04:02;100166.22;;;25.86;nan
21153;BME280;10734;44.792;20.482;2023-05-01T10:06:29;100167.50;;;26.21;nan
21153;BME280;10734;44.792;20.482;2023-05-01T10:08:57;100162.00;;;25.67;nan
21153;BME280;10734;44.792;20.482;2023-05-01T10:11:24;100162.94;;;25.12;nan
21153;BME280;10734;44.792;20.482;2023-05-01T10:14:08;100171.66;;;24.68;nan
21153;BME280;10734;44.792;20.482;2023-05-01T10:16:36;100180.63;;;24.53;nan
21153;BME280;10734;44.792;20.482;2023-05-01T10:19:04;100167.84;;;24.12;nan
21153;BME280;10734;44.792;20.482;2023-05-01T10:21:31;100164.28;;;23.52;nan
21153;BME280;10734;44.792;20.482;2023-05-01T10:24:00;100162.31;;;23.87;nan
21153;BME280;10734;44.792;20.482;2023-05-01T10:26:29;100153.94;;;24.21;nan
21153;BME280;10734;44.792;20.482;2023-05-01T10:28:55;100151.69;;;22.99;nan
21153;BME280;10734;44.792;20.482;2023-05-01T10:31:25;100148.56;;;23.28;nan
21153;BME280;10734;44.792;20.482;2023-05-01T10:33:54;100146.75;;;23.53;nan
21153;BME280;10734;44.792;20.482;2023-05-01T10:36:26;100146.19;;;24.33;nan
21153;BME280;10734;44.792;20.482;2023-05-01T10:38:54;100147.22;;;24.73;nan
21153;BME280;10734;44.792;20.482;2023-05-01T10:44:25;100141.53;;;25.92;nan
21153;BME280;10734;44.792;20.482;2023-05-01T10:46:53;100144.53;;;25.43;nan
21153;BME280;10734;44.792;20.482;2023-05-01T10:49:21;100140.38;;;25.16;nan
21153;BME280;10734;44.792;20.482;2023-05-01T10:51:57;100137.13;;;24.96;nan
21153;BME280;10734;44.792;20.482;2023-05-01T10:54:34;100141.31;;;24.84;nan
21153;BME280;10734;44.792;20.482;2023-05-01T10:57:02;100140.94;;;24.95;nan
21153;BME280;10734;44.792;20.482;2023-05-01T11:02:25;100132.31;;;26.00;nan
21153;BME280;10734;44.792;20.482;2023-05-01T11:04:52;100130.72;;;26.81;nan
21153;BME280;10734;44.792;20.482;2023-05-01T11:07:22;100130.06;;;26.94;nan
21153;BME280;10734;44.792;20.482;2023-05-01T11:09:53;100118.69;;;27.48;nan
21153;BME280;10734;44.792;20.482;2023-05-01T11:12:46;100118.13;;;26.79;nan
21153;BME280;10734;44.792;20.482;2023-05-01T11:15:31;100116.03;;;26.28;nan
21153;BME280;10734;44.792;20.482;2023-05-01T11:17:59;100109.88;;;25.49;nan
21153;BME280;10734;44.792;20.482;2023-05-01T11:22:55;100114.97;;;24.82;nan
21153;BME280;10734;44.792;20.482;2023-05-01T11:25:25;100116.41;;;24.61;nan
21153;BME280;10734;44.792;20.482;2023-05-01T11:28:00;100115.34;;;25.26;nan
21153;BME280;10734;44.792;20.482;2023-05-01T11:30:36;100110.41;;;25.13;nan
21153;BME280;10734;44.792;20.482;2023-05-01T11:33:03;100103.88;;;26.00;nan
21153;BME280;10734;44.792;20.482;2023-05-01T11:35:31;100096.56;;;26.07;nan
21153;BME280;10734;44.792;20.482;2023-05-01T11:37:58;100092.41;;;26.78;nan
21153;BME280;10734;44.792;20.482;2023-05-01T11:40:29;100101.84;;;26.69;nan
21153;BME280;10734;44.792;20.482;2023-05-01T11:43:07;100090.81;;;26.31;nan
21153;BME280;10734;44.792;20.482;2023-05-01T11:45:35;100093.97;;;26.05;nan
21153;BME280;10734;44.792;20.482;2023-05-01T11:48:03;100084.50;;;26.75;nan
21153;BME280;10734;44.792;20.482;2023-05-01T11:50:35;100089.69;;;27.80;nan
21153;BME280;10734;44.792;20.482;2023-05-01T11:53:03;100084.72;;;27.18;nan
21153;BME280;10734;44.792;20.482;2023-05-01T11:55:37;100080.78;;;28.06;nan
21153;BME280;10734;44.792;20.482;2023-05-01T11:58:04;100084.66;;;28.62;nan
21153;BME280;10734;44.792;20.482;2023-05-01T12:00:35;100073.53;;;28.96;nan
21153;BME280;10734;44.792;20.482;2023-05-01T12:03:08;100076.97;;;28.98;nan
21153;BME280;10734;44.792;20.482;2023-05-01T12:05:40;100081.03;;;28.61;nan
21153;BME280;10734;44.792;20.482;2023-05-01T12:10:46;100067.69;;;27.57;nan
21153;BME280;10734;44.792;20.482;2023-05-01T12:13:13;100071.50;;;27.93;nan
21153;BME280;10734;44.792;20.482;2023-05-01T12:15:45;100064.03;;;28.71;nan
21153;BME280;10734;44.792;20.482;2023-05-01T12:18:14;100052.34;;;29.23;nan
21153;BME280;10734;44.792;20.482;2023-05-01T12:20:44;100055.78;;;29.19;nan
21153;BME280;10734;44.792;20.482;2023-05-01T12:23:12;100055.00;;;27.63;nan
21153;BME280;10734;44.792;20.482;2023-05-01T12:25:42;100055.16;;;27.55;nan
21153;BME280;10734;44.792;20.482;2023-05-01T12:28:15;100049.16;;;27.94;nan
21153;BME280;10734;44.792;20.482;2023-05-01T12:30:48;100044.97;;;28.05;nan
21153;BME280;10734;44.792;20.482;2023-05-01T12:33:19;100045.78;;;27.56;nan
21153;BME280;10734;44.792;20.482;2023-05-01T12:35:48;100028.63;;;27.82;nan
21153;BME280;10734;44.792;20.482;2023-05-01T12:38:20;100035.53;;;28.49;nan
21153;BME280;10734;44.792;20.482;2023-05-01T12:40:57;100029.72;;;28.72;nan
21153;BME280;10734;44.792;20.482;2023-05-01T12:43:35;100033.25;;;28.59;nan
21153;BME280;10734;44.792;20.482;2023-05-01T12:46:04;100033.13;;;27.68;nan
21153;BME280;10734;44.792;20.482;2023-05-01T12:48:31;100030.22;;;27.33;nan
21153;BME280;10734;44.792;20.482;2023-05-01T12:51:01;100025.28;;;27.29;nan
21153;BME280;10734;44.792;20.482;2023-05-01T12:53:28;100032.50;;;26.94;nan
21153;BME280;10734;44.792;20.482;2023-05-01T12:55:56;100017.31;;;27.19;nan
21153;BME280;10734;44.792;20.482;2023-05-01T12:58:36;100012.91;;;27.25;nan
21153;BME280;10734;44.792;20.482;2023-05-01T13:01:03;100018.16;;;27.41;nan
21153;BME280;10734;44.792;20.482;2023-05-01T13:03:31;100016.75;;;26.94;nan
21153;BME280;10734;44.792;20.482;2023-05-01T13:06:00;100018.72;;;26.11;nan
21153;BME280;10734;44.792;20.482;2023-05-01T13:08:32;100016.22;;;26.02;nan
21153;BME280;10734;44.792;20.482;2023-05-01T13:11:07;100004.13;;;26.55;nan
21153;BME280;10734;44.792;20.482;2023-05-01T13:13:35;100005.19;;;27.05;nan
21153;BME280;10734;44.792;20.482;2023-05-01T13:16:21;100008.75;;;27.57;nan
21153;BME280;10734;44.792;20.482;2023-05-01T13:18:51;100008.97;;;27.55;nan
21153;BME280;10734;44.792;20.482;2023-05-01T13:21:19;100003.78;;;28.17;nan
21153;BME280;10734;44.792;20.482;2023-05-01T13:23:58;99995.06;;;27.70;nan
21153;BME280;10734;44.792;20.482;2023-05-01T13:26:28;99999.91;;;27.83;nan
21153;BME280;10734;44.792;20.482;2023-05-01T13:28:57;99996.31;;;27.46;nan
21153;BME280;10734;44.792;20.482;2023-05-01T13:31:25;99985.25;;;26.44;nan
21153;BME280;10734;44.792;20.482;2023-05-01T13:33:53;99985.16;;;26.37;nan
21153;BME280;10734;44.792;20.482;2023-05-01T13:36:21;99983.56;;;26.58;nan
21153;BME280;10734;44.792;20.482;2023-05-01T13:38:54;99976.66;;;26.39;nan
21153;BME280;10734;44.792;20.482;2023-05-01T13:41:23;99976.97;;;26.44;nan
21153;BME280;10734;44.792;20.482;2023-05-01T13:43:56;99980.88;;;26.20;nan
21153;BME280;10734;44.792;20.482;2023-05-01T13:46:24;99969.72;;;26.73;nan
21153;BME280;10734;44.792;20.482;2023-05-01T13:48:53;99968.78;;;26.80;nan
21153;BME280;10734;44.792;20.482;2023-05-01T13:51:21;99963.97;;;27.04;nan
21153;BME280;10734;44.792;20.482;2023-05-01T13:53:49;99972.47;;;26.87;nan
21153;BME280;10734;44.792;20.482;2023-05-01T13:56:16;99968.69;;;26.29;nan
21153;BME280;10734;44.792;20.482;2023-05-01T13:58:43;99972.66;;;26.12;nan
21153;BME280;10734;44.792;20.482;2023-05-01T14:01:15;99955.63;;;25.70;nan
21153;BME280;10734;44.792;20.482;2023-05-01T14:03:42;99962.41;;;26.06;nan
21153;BME280;10734;44.792;20.482;2023-05-01T14:06:12;99960.41;;;26.59;nan
21153;BME280;10734;44.792;20.482;2023-05-01T14:08:40;99950.13;;;26.68;nan
21153;BME280;10734;44.792;20.482;2023-05-01T14:11:08;99965.56;;;27.13;nan
21153;BME280;10734;44.792;20.482;2023-05-01T14:13:35;99960.03;;;27.13;nan
21153;BME280;10734;44.792;20.482;2023-05-01T14:16:06;99947.88;;;27.29;nan
21153;BME280;10734;44.792;20.482;2023-05-01T14:18:43;99949.63;;;27.58;nan
21153;BME280;10734;44.792;20.482;2023-05-01T14:21:14;99951.16;;;27.39;nan
21153;BME280;10734;44.792;20.482;2023-05-01T14:23:41;99947.63;;;27.09;nan
21153;BME280;10734;44.792;20.482;2023-05-01T14:26:09;99944.38;;;26.84;nan
21153;BME280;10734;44.792;20.482;2023-05-01T14:28:41;99943.88;;;27.31;nan
21153;BME280;10734;44.792;20.482;2023-05-01T14:31:24;99945.47;;;27.69;nan
21153;BME280;10734;44.792;20.482;2023-05-01T14:34:00;99944.84;;;27.95;nan
21153;BME280;10734;44.792;20.482;2023-05-01T14:36:27;99936.50;;;28.16;nan
21153;BME280;10734;44.792;20.482;2023-05-01T14:39:00;99944.03;;;28.01;nan
21153;BME280;10734;44.792;20.482;2023-05-01T14:41:28;99948.31;;;27.54;nan
21153;BME280;10734;44.792;20.482;2023-05-01T14:43:55;99945.66;;;27.67;nan
21153;BME280;10734;44.792;20.482;2023-05-01T14:46:32;99939.78;;;26.91;nan
21153;BME280;10734;44.792;20.482;2023-05-01T14:49:01;99934.31;;;26.61;nan
21153;BME280;10734;44.792;20.482;2023-05-01T14:51:28;99943.84;;;26.59;nan
21153;BME280;10734;44.792;20.482;2023-05-01T14:53:57;99937.19;;;26.53;nan
21153;BME280;10734;44.792;20.482;2023-05-01T14:56:24;99936.09;;;26.69;nan
21153;BME280;10734;44.792;20.482;2023-05-01T14:58:51;99939.16;;;26.59;nan
21153;BME280;10734;44.792;20.482;2023-05-01T15:01:18;99929.00;;;26.30;nan
21153;BME280;10734;44.792;20.482;2023-05-01T15:03:45;99930.63;;;26.39;nan
21153;BME280;10734;44.792;20.482;2023-05-01T15:06:12;99922.63;;;26.00;nan
21153;BME280;10734;44.792;20.482;2023-05-01T15:08:39;99917.69;;;26.10;nan
21153;BME280;10734;44.792;20.482;2023-05-01T15:11:09;99919.59;;;26.10;nan
21153;BME280;10734;44.792;20.482;2023-05-01T15:13:37;99924.53;;;26.14;nan
21153;BME280;10734;44.792;20.482;2023-05-01T15:16:04;99922.50;;;25.93;nan
21153;BME280;10734;44.792;20.482;2023-05-01T15:18:31;99915.22;;;25.78;nan
21153;BME280;10734;44.792;20.482;2023-05-01T15:21:00;99913.56;;;26.21;nan
21153;BME280;10734;44.792;20.482;2023-05-01T15:23:27;99909.00;;;26.43;nan
21153;BME280;10734;44.792;20.482;2023-05-01T15:25:53;99905.00;;;25.48;nan
21153;BME280;10734;44.792;20.482;2023-05-01T15:28:20;99910.38;;;25.65;nan
21153;BME280;10734;44.792;20.482;2023-05-01T15:30:47;99908.34;;;26.11;nan
21153;BME280;10734;44.792;20.482;2023-05-01T15:33:14;99904.84;;;26.47;nan
21153;BME280;10734;44.792;20.482;2023-05-01T15:35:44;99900.31;;;26.61;nan
21153;BME280;10734;44.792;20.482;2023-05-01T15:38:11;99891.88;;;26.48;nan
21153;BME280;10734;44.792;20.482;2023-05-01T15:40:41;99897.28;;;26.41;nan
21153;BME280;10734;44.792;20.482;2023-05-01T15:43:08;99897.97;;;26.43;nan
21153;BME280;10734;44.792;20.482;2023-05-01T15:45:36;99889.69;;;26.28;nan
21153;BME280;10734;44.792;20.482;2023-05-01T15:48:09;99893.28;;;25.84;nan
21153;BME280;10734;44.792;20.482;2023-05-01T15:50:37;99894.19;;;26.00;nan
21153;BME280;10734;44.792;20.482;2023-05-01T15:53:04;99894.16;;;26.14;nan
21153;BME280;10734;44.792;20.482;2023-05-01T15:55:30;99899.00;;;25.83;nan
21153;BME280;10734;44.792;20.482;2023-05-01T15:57:57;99902.66;;;25.60;nan
21153;BME280;10734;44.792;20.482;2023-05-01T16:00:24;99904.41;;;25.38;nan
21153;BME280;10734;44.792;20.482;2023-05-01T16:02:51;99898.28;;;25.05;nan
21153;BME280;10734;44.792;20.482;2023-05-01T16:05:19;99902.03;;;25.12;nan
21153;BME280;10734;44.792;20.482;2023-05-01T16:07:53;99893.81;;;25.27;nan
21153;BME280;10734;44.792;20.482;2023-05-01T16:10:21;99901.22;;;25.27;nan
21153;BME280;10734;44.792;20.482;2023-05-01T16:12:48;99891.78;;;24.98;nan
21153;BME280;10734;44.792;20.482;2023-05-01T16:15:16;99891.97;;;24.73;nan
21153;BME280;10734;44.792;20.482;2023-05-01T16:17:44;99885.69;;;24.57;nan
21153;BME280;10734;44.792;20.482;2023-05-01T16:20:12;99876.06;;;24.13;nan
21153;BME280;10734;44.792;20.482;2023-05-01T16:22:40;99888.31;;;24.02;nan
21153;BME280;10734;44.792;20.482;2023-05-01T16:25:09;99877.38;;;23.86;nan
21153;BME280;10734;44.792;20.482;2023-05-01T16:27:42;99876.00;;;23.82;nan
21153;BME280;10734;44.792;20.482;2023-05-01T16:30:13;99879.63;;;23.82;nan
21153;BME280;10734;44.792;20.482;2023-05-01T16:32:40;99879.47;;;23.76;nan
21153;BME280;10734;44.792;20.482;2023-05-01T16:35:15;99875.34;;;23.55;nan
21153;BME280;10734;44.792;20.482;2023-05-01T16:37:43;99869.00;;;23.47;nan
21153;BME280;10734;44.792;20.482;2023-05-01T16:40:14;99873.63;;;23.46;nan
21153;BME280;10734;44.792;20.482;2023-05-01T16:42:42;99881.53;;;23.33;nan
21153;BME280;10734;44.792;20.482;2023-05-01T16:45:09;99876.41;;;23.22;nan
21153;BME280;10734;44.792;20.482;2023-05-01T16:47:37;99881.56;;;23.08;nan
21153;BME280;10734;44.792;20.482;2023-05-01T16:50:07;99876.06;;;23.00;nan
21153;BME280;10734;44.792;20.482;2023-05-01T16:52:34;99882.38;;;22.84;nan
21153;BME280;10734;44.792;20.482;2023-05-01T16:55:00;99874.28;;;22.66;nan
21153;BME280;10734;44.792;20.482;2023-05-01T16:57:27;99878.19;;;22.56;nan
21153;BME280;10734;44.792;20.482;2023-05-01T16:59:54;99880.22;;;22.46;nan
21153;BME280;10734;44.792;20.482;2023-05-01T17:02:20;99884.47;;;22.32;nan
21153;BME280;10734;44.792;20.482;2023-05-01T17:04:47;99878.59;;;22.18;nan
21153;BME280;10734;44.792;20.482;2023-05-01T17:07:14;99877.63;;;22.02;nan
21153;BME280;10734;44.792;20.482;2023-05-01T17:09:41;99880.69;;;21.99;nan
21153;BME280;10734;44.792;20.482;2023-05-01T17:12:07;99875.47;;;21.87;nan
21153;BME280;10734;44.792;20.482;2023-05-01T17:14:34;99873.84;;;21.68;nan
21153;BME280;10734;44.792;20.482;2023-05-01T17:17:01;99889.00;;;21.55;nan
21153;BME280;10734;44.792;20.482;2023-05-01T17:19:28;99879.19;;;21.44;nan
21153;BME280;10734;44.792;20.482;2023-05-01T17:21:55;99886.91;;;21.31;nan
21153;BME280;10734;44.792;20.482;2023-05-01T17:24:24;99884.59;;;21.18;nan
21153;BME280;10734;44.792;20.482;2023-05-01T17:26:52;99887.41;;;21.08;nan
21153;BME280;10734;44.792;20.482;2023-05-01T17:29:19;99896.41;;;21.00;nan
21153;BME280;10734;44.792;20.482;2023-05-01T17:31:45;99895.09;;;20.87;nan
21153;BME280;10734;44.792;20.482;2023-05-01T17:34:12;99892.13;;;20.80;nan
21153;BME280;10734;44.792;20.482;2023-05-01T17:36:39;99899.22;;;20.73;nan
21153;BME280;10734;44.792;20.482;2023-05-01T17:39:05;99899.59;;;20.60;nan
21153;BME280;10734;44.792;20.482;2023-05-01T17:41:32;99898.63;;;20.51;nan
21153;BME280;10734;44.792;20.482;2023-05-01T17:43:59;99904.00;;;20.43;nan
21153;BME280;10734;44.792;20.482;2023-05-01T17:46:25;99903.91;;;20.35;nan
21153;BME280;10734;44.792;20.482;2023-05-01T17:48:52;99908.41;;;20.26;nan
21153;BME280;10734;44.792;20.482;2023-05-01T17:51:19;99904.00;;;20.16;nan
21153;BME280;10734;44.792;20.482;2023-05-01T17:53:46;99902.03;;;20.08;nan
21153;BME280;10734;44.792;20.482;2023-05-01T17:56:13;99908.25;;;20.00;nan
21153;BME280;10734;44.792;20.482;2023-05-01T17:58:39;99912.75;;;19.92;nan
21153;BME280;10734;44.792;20.482;2023-05-01T18:01:06;99907.75;;;19.87;nan
21153;BME280;10734;44.792;20.482;2023-05-01T18:03:34;99908.47;;;19.79;nan
21153;BME280;10734;44.792;20.482;2023-05-01T18:06:01;99914.69;;;19.72;nan
21153;BME280;10734;44.792;20.482;2023-05-01T18:08:28;99916.13;;;19.66;nan
21153;BME280;10734;44.792;20.482;2023-05-01T18:10:54;99921.44;;;19.58;nan
21153;BME280;10734;44.792;20.482;2023-05-01T18:13:21;99917.59;;;19.51;nan
21153;BME280;10734;44.792;20.482;2023-05-01T18:15:53;99936.69;;;19.51;nan
21153;BME280;10734;44.792;20.482;2023-05-01T18:18:20;99932.41;;;19.38;nan
21153;BME280;10734;44.792;20.482;2023-05-01T18:20:47;99940.31;;;19.32;nan
21153;BME280;10734;44.792;20.482;2023-05-01T18:23:16;99940.75;;;19.27;nan
21153;BME280;10734;44.792;20.482;2023-05-01T18:25:43;99957.13;;;19.27;nan
21153;BME280;10734;44.792;20.482;2023-05-01T18:28:10;99939.31;;;19.13;nan
21153;BME280;10734;44.792;20.482;2023-05-01T18:30:37;99948.94;;;19.18;nan
21153;BME280;10734;44.792;20.482;2023-05-01T18:33:04;99942.06;;;19.04;nan
21153;BME280;10734;44.792;20.482;2023-05-01T18:35:31;99944.22;;;19.00;nan
21153;BME280;10734;44.792;20.482;2023-05-01T18:37:57;99932.84;;;18.95;nan
